createdAt,value
2019-06-20T00:00:31.353Z,7.40
2019-06-20T00:03:03.223Z,9.53
2019-06-20T00:05:35.131Z,7.77
2019-06-20T00:08:06.584Z,7.80
2019-06-20T00:10:37.950Z,8.27
2019-06-20T00:13:10.609Z,7.83
2019-06-20T00:15:42.708Z,8.13
2019-06-20T00:18:14.375Z,7.30
2019-06-20T00:20:45.860Z,7.93
2019-06-20T00:23:17.275Z,7.60
2019-06-20T00:25:48.675Z,7.50
2019-06-20T00:28:20.000Z,6.53
2019-06-20T00:30:51.595Z,7.23
2019-06-20T00:33:22.893Z,7.13
2019-06-20T00:35:54.481Z,7.20
2019-06-20T00:38:25.745Z,7.30
2019-06-20T00:40:57.134Z,6.53
2019-06-20T00:43:28.943Z,6.83
2019-06-20T00:46:00.329Z,7.33
2019-06-20T00:48:31.762Z,8.13
2019-06-20T00:51:03.510Z,8.57
2019-06-20T00:53:34.889Z,9.70
2019-06-20T00:56:07.188Z,9.37
2019-06-20T00:58:38.654Z,9.60
2019-06-20T01:01:10.284Z,7.00
2019-06-20T01:03:41.739Z,6.73
2019-06-20T01:06:13.829Z,7.30
2019-06-20T01:08:45.231Z,6.93
2019-06-20T01:11:16.655Z,8.07
2019-06-20T01:13:48.209Z,7.73
2019-06-20T01:16:19.702Z,7.97
2019-06-20T01:18:51.450Z,7.80
2019-06-20T01:21:23.249Z,8.10
2019-06-20T01:23:55.730Z,7.77
2019-06-20T01:26:27.076Z,7.80
2019-06-20T01:28:59.622Z,8.20
2019-06-20T01:31:31.521Z,8.30
2019-06-20T01:34:02.948Z,7.40
2019-06-20T01:36:34.421Z,7.50
2019-06-20T01:39:09.586Z,7.13
2019-06-20T01:41:41.622Z,6.60
2019-06-20T01:44:13.776Z,6.13
2019-06-20T01:46:45.299Z,6.13
2019-06-20T01:49:16.846Z,6.83
2019-06-20T01:51:48.238Z,6.50
2019-06-20T01:54:19.684Z,5.47
2019-06-20T01:56:51.222Z,5.03
2019-06-20T01:59:22.869Z,5.20
2019-06-20T02:01:54.643Z,4.83
2019-06-20T02:04:26.324Z,5.30
2019-06-20T02:06:57.890Z,4.73
2019-06-20T02:09:29.627Z,4.27
2019-06-20T02:12:01.113Z,4.50
2019-06-20T02:14:32.592Z,4.17
2019-06-20T02:17:04.122Z,4.40
2019-06-20T02:19:36.001Z,4.17
2019-06-20T02:22:07.460Z,3.90
2019-06-20T02:24:38.929Z,4.10
2019-06-20T02:27:10.277Z,3.70
2019-06-20T02:29:41.787Z,4.07
2019-06-20T02:32:13.106Z,3.83
2019-06-20T02:34:44.574Z,3.90
2019-06-20T02:37:16.528Z,4.30
2019-06-20T02:39:47.839Z,4.50
2019-06-20T02:42:19.337Z,4.23
2019-06-20T02:44:50.628Z,4.30
2019-06-20T02:47:22.345Z,4.33
2019-06-20T02:49:53.712Z,4.40
2019-06-20T02:52:25.787Z,4.83
2019-06-20T02:54:57.345Z,4.50
2019-06-20T02:57:29.127Z,4.67
2019-06-20T03:00:00.862Z,4.50
2019-06-20T03:02:32.336Z,4.33
2019-06-20T03:05:04.141Z,4.37
2019-06-20T03:07:35.613Z,5.00
2019-06-20T03:10:07.804Z,5.10
2019-06-20T03:12:39.620Z,5.37
2019-06-20T03:15:11.406Z,5.03
2019-06-20T03:17:42.867Z,5.10
2019-06-20T03:20:14.563Z,5.07
2019-06-20T03:22:46.410Z,5.17
2019-06-20T03:25:19.354Z,4.83
2019-06-20T03:27:50.867Z,4.60
2019-06-20T03:30:22.608Z,4.30
2019-06-20T03:32:54.598Z,4.80
2019-06-20T03:35:26.070Z,4.87
2019-06-20T03:37:57.931Z,4.57
2019-06-20T03:40:29.400Z,4.80
2019-06-20T03:43:00.862Z,4.80
2019-06-20T03:45:32.385Z,5.10
2019-06-20T03:48:04.073Z,4.70
2019-06-20T03:50:35.616Z,4.90
2019-06-20T03:53:07.400Z,5.13
2019-06-20T03:55:38.914Z,4.90
2019-06-20T03:58:10.310Z,5.23
2019-06-20T04:00:42.394Z,4.93
2019-06-20T04:03:13.892Z,5.00
2019-06-20T04:05:45.498Z,4.90
2019-06-20T04:08:17.046Z,5.00
2019-06-20T04:10:48.498Z,4.97
2019-06-20T04:13:19.948Z,5.10
2019-06-20T04:15:51.337Z,5.00
2019-06-20T04:18:22.662Z,4.70
2019-06-20T04:20:54.334Z,4.80
2019-06-20T04:23:25.707Z,4.70
2019-06-20T04:25:57.287Z,5.20
2019-06-20T04:28:29.011Z,4.70
2019-06-20T04:31:00.415Z,5.00
2019-06-20T04:33:31.923Z,5.00
2019-06-20T04:36:03.647Z,5.03
2019-06-20T04:38:35.115Z,5.37
2019-06-20T04:41:06.562Z,5.70
2019-06-20T04:43:38.033Z,5.30
2019-06-20T04:46:20.166Z,5.37
2019-06-20T04:48:51.462Z,6.03
2019-06-20T04:51:22.729Z,6.30
2019-06-20T04:53:54.203Z,5.73
2019-06-20T04:56:25.953Z,5.93
2019-06-20T04:58:57.362Z,6.43
2019-06-20T05:01:28.685Z,6.13
2019-06-20T05:03:59.956Z,6.00
2019-06-20T05:06:31.719Z,5.97
2019-06-20T05:09:03.368Z,5.83
2019-06-20T05:11:34.767Z,6.60
2019-06-20T05:14:06.271Z,6.70
2019-06-20T05:16:37.722Z,6.33
2019-06-20T05:19:09.104Z,6.07
2019-06-20T05:21:40.847Z,6.00
2019-06-20T05:24:12.233Z,5.90
2019-06-20T05:26:43.490Z,5.63
2019-06-20T05:29:15.374Z,5.80
2019-06-20T05:31:46.804Z,5.93
2019-06-20T05:34:18.527Z,5.43
2019-06-20T05:36:50.335Z,6.20
2019-06-20T05:39:22.215Z,6.10
2019-06-20T05:41:53.604Z,5.90
2019-06-20T05:44:25.376Z,5.40
2019-06-20T05:47:11.424Z,5.43
2019-06-20T05:49:30.196Z,5.60
2019-06-20T05:52:01.711Z,5.73
2019-06-20T05:54:33.043Z,5.37
2019-06-20T05:57:04.756Z,5.10
2019-06-20T05:59:36.293Z,5.77
2019-06-20T06:02:08.214Z,5.10
2019-06-20T06:04:39.658Z,5.47
2019-06-20T06:07:14.122Z,5.40
2019-06-20T06:09:45.582Z,5.50
2019-06-20T06:12:17.250Z,5.90
2019-06-20T06:14:49.132Z,6.37
2019-06-20T06:17:21.112Z,6.50
2019-06-20T06:19:52.657Z,6.47
2019-06-20T06:22:25.616Z,6.67
2019-06-20T06:24:57.273Z,6.37
2019-06-20T06:27:47.149Z,6.87
2019-06-20T06:30:19.942Z,7.07
2019-06-20T06:32:56.540Z,7.10
2019-06-20T06:35:28.847Z,7.10
2019-06-20T06:38:02.984Z,7.40
2019-06-20T06:40:34.516Z,8.37
2019-06-20T06:43:05.957Z,8.40
2019-06-20T06:45:37.498Z,7.00
2019-06-20T06:48:09.203Z,6.47
2019-06-20T06:50:40.953Z,6.15
2019-06-20T06:53:12.323Z,5.62
2019-06-20T06:55:43.714Z,5.57
2019-06-20T06:58:15.249Z,6.03
2019-06-20T07:00:47.274Z,5.42
2019-06-20T07:03:18.635Z,5.60
2019-06-20T07:05:50.089Z,5.60
2019-06-20T07:08:21.440Z,6.23
2019-06-20T07:10:53.803Z,5.80
2019-06-20T07:13:25.281Z,5.73
2019-06-20T07:15:56.679Z,5.85
2019-06-20T07:18:28.034Z,5.67
2019-06-20T07:20:59.562Z,5.90
2019-06-20T07:23:30.917Z,5.67
2019-06-20T07:26:02.325Z,5.60
2019-06-20T07:28:34.030Z,5.53
2019-06-20T07:31:04.804Z,5.10
2019-06-20T07:33:36.181Z,4.72
2019-06-20T07:36:08.113Z,5.17
2019-06-20T07:38:39.459Z,5.08
2019-06-20T07:41:11.191Z,4.33
2019-06-20T07:43:42.835Z,5.20
2019-06-20T07:46:14.293Z,4.28
2019-06-20T07:48:45.926Z,4.20
2019-06-20T07:51:17.944Z,4.10
2019-06-20T07:53:49.310Z,4.17
2019-06-20T07:56:20.714Z,4.10
2019-06-20T07:58:52.306Z,4.40
2019-06-20T08:01:24.223Z,5.00
2019-06-20T08:03:55.579Z,5.80
2019-06-20T08:06:27.120Z,6.05
2019-06-20T08:08:59.015Z,6.00
2019-06-20T08:11:30.506Z,6.53
2019-06-20T08:14:01.908Z,5.60
2019-06-20T08:16:33.437Z,5.43
2019-06-20T08:19:04.901Z,5.67
2019-06-20T08:21:36.355Z,6.00
2019-06-20T08:24:07.802Z,6.27
2019-06-20T08:26:39.523Z,5.83
2019-06-20T08:29:20.829Z,5.10
2019-06-20T08:31:44.009Z,5.43
2019-06-20T08:34:15.376Z,5.15
2019-06-20T08:36:46.816Z,5.43
2019-06-20T08:39:18.203Z,5.73
2019-06-20T08:41:49.581Z,5.97
2019-06-20T08:44:21.659Z,5.80
2019-06-20T08:46:53.027Z,6.53
2019-06-20T08:49:25.472Z,6.00
2019-06-20T08:51:57.376Z,6.50
2019-06-20T08:54:28.721Z,5.93
2019-06-20T08:57:00.811Z,7.00
2019-06-20T08:59:32.356Z,7.17
2019-06-20T09:04:36.236Z,7.47
2019-06-20T09:07:07.792Z,8.07
2019-06-20T09:09:39.267Z,7.42
2019-06-20T09:12:10.587Z,7.70
2019-06-20T09:14:42.308Z,7.70
2019-06-20T09:17:13.923Z,7.75
2019-06-20T09:19:45.692Z,7.28
2019-06-20T09:22:17.448Z,6.28
2019-06-20T09:24:49.175Z,6.25
2019-06-20T09:27:21.065Z,6.00
2019-06-20T09:29:53.266Z,5.97
2019-06-20T09:32:25.645Z,6.42
2019-06-20T09:34:57.035Z,6.85
2019-06-20T09:37:28.449Z,6.80
2019-06-20T09:39:59.822Z,6.30
2019-06-20T09:42:31.381Z,6.58
2019-06-20T09:45:02.970Z,6.92
2019-06-20T09:47:34.465Z,6.80
2019-06-20T09:50:08.405Z,7.03
2019-06-20T09:52:40.125Z,7.00
2019-06-20T09:55:13.461Z,7.35
2019-06-20T09:57:45.169Z,6.90
2019-06-20T10:00:17.976Z,7.72
2019-06-20T10:02:50.673Z,8.15
2019-06-20T10:05:23.234Z,8.15
2019-06-20T10:07:54.737Z,7.33
2019-06-20T10:10:30.914Z,8.30
2019-06-20T10:13:02.366Z,8.48
2019-06-20T10:15:36.941Z,7.92
2019-06-20T10:18:08.558Z,7.65
2019-06-20T10:20:40.014Z,7.80
2019-06-20T10:23:11.474Z,8.10
2019-06-20T10:25:42.934Z,8.40
2019-06-20T10:28:14.382Z,8.15
2019-06-20T10:30:46.501Z,8.53
2019-06-20T10:33:18.084Z,8.18
2019-06-20T10:35:50.366Z,7.47
2019-06-20T10:38:21.945Z,8.10
2019-06-20T10:40:53.465Z,8.65
2019-06-20T10:43:25.097Z,7.00
2019-06-20T10:45:56.769Z,7.25
2019-06-20T10:48:28.092Z,7.33
2019-06-20T10:51:18.439Z,7.10
2019-06-20T10:53:51.423Z,6.97
2019-06-20T10:56:22.825Z,7.60
2019-06-20T10:58:54.160Z,6.83
2019-06-20T11:01:25.760Z,6.60
2019-06-20T11:03:57.066Z,6.40
2019-06-20T11:06:28.454Z,6.42
2019-06-20T11:08:59.762Z,6.83
2019-06-20T11:11:31.121Z,7.45
2019-06-20T11:14:02.667Z,7.65
2019-06-20T11:16:34.512Z,7.67
2019-06-20T11:19:05.973Z,7.25
2019-06-20T11:21:39.503Z,6.05
2019-06-20T11:24:11.457Z,4.20
2019-06-20T11:26:43.080Z,3.75
2019-06-20T11:29:15.005Z,4.22
2019-06-20T11:31:47.916Z,3.98
2019-06-20T11:34:19.585Z,4.20
2019-06-20T11:36:51.280Z,3.80
2019-06-20T11:39:23.248Z,3.85
2019-06-20T11:41:54.704Z,3.70
2019-06-20T11:44:26.154Z,3.40
2019-06-20T11:46:57.462Z,3.30
2019-06-20T11:49:28.933Z,3.65
2019-06-20T11:52:00.352Z,3.00
2019-06-20T11:54:32.834Z,3.02
2019-06-20T11:57:04.887Z,2.98
2019-06-20T11:59:36.266Z,3.67
2019-06-20T12:02:08.960Z,3.33
2019-06-20T12:04:41.484Z,3.40
2019-06-20T12:07:13.304Z,3.05
2019-06-20T12:09:44.700Z,3.02
2019-06-20T12:12:16.181Z,2.98
2019-06-20T12:14:48.606Z,3.10
2019-06-20T12:17:20.109Z,3.05
2019-06-20T12:19:51.491Z,2.40
2019-06-20T12:22:22.880Z,2.90
2019-06-20T12:24:54.659Z,2.58
2019-06-20T12:27:26.271Z,2.30
2019-06-20T12:29:57.842Z,2.30
2019-06-20T12:32:29.328Z,2.22
2019-06-20T12:35:00.743Z,2.50
2019-06-20T12:37:32.101Z,2.10
2019-06-20T12:40:03.554Z,2.20
2019-06-20T12:42:34.931Z,2.70
2019-06-20T12:45:07.887Z,2.02
2019-06-20T12:47:40.209Z,2.27
2019-06-20T12:50:12.336Z,2.20
2019-06-20T12:52:45.364Z,2.37
2019-06-20T12:55:16.872Z,1.95
2019-06-20T12:57:48.645Z,1.67
2019-06-20T13:00:21.891Z,2.00
2019-06-20T13:02:53.296Z,2.02
2019-06-20T13:05:25.555Z,2.20
2019-06-20T13:07:57.003Z,2.37
2019-06-20T13:10:28.473Z,2.05
2019-06-20T13:12:59.988Z,2.20
2019-06-20T13:15:31.311Z,2.10
2019-06-20T13:18:02.897Z,2.27
2019-06-20T13:20:34.271Z,2.20
2019-06-20T13:23:05.633Z,2.27
2019-06-20T13:25:37.712Z,2.00
2019-06-20T13:28:10.104Z,2.30
2019-06-20T13:30:45.987Z,2.47
2019-06-20T13:33:15.566Z,2.25
2019-06-20T13:35:48.631Z,2.30
2019-06-20T13:38:21.142Z,2.10
2019-06-20T13:40:52.569Z,2.33
2019-06-20T13:43:24.416Z,2.10
2019-06-20T13:45:55.895Z,1.95
2019-06-20T13:48:27.259Z,2.27
2019-06-20T13:50:58.870Z,1.90
2019-06-20T13:53:30.449Z,1.90
2019-06-20T13:56:02.490Z,2.40
2019-06-20T13:58:33.778Z,2.08
2019-06-20T14:01:05.352Z,2.02
2019-06-20T14:03:36.727Z,2.00
2019-06-20T14:06:08.128Z,2.02
2019-06-20T14:08:42.353Z,1.90
2019-06-20T14:11:12.820Z,2.10
2019-06-20T14:13:49.386Z,2.40
2019-06-20T14:16:17.385Z,2.22
2019-06-20T14:18:50.242Z,2.20
2019-06-20T14:21:21.793Z,2.20
2019-06-20T14:23:53.855Z,2.05
2019-06-20T14:26:25.517Z,2.08
2019-06-20T14:28:57.008Z,1.82
2019-06-20T14:31:28.685Z,2.05
2019-06-20T14:34:00.082Z,1.90
2019-06-20T14:36:31.606Z,1.87
2019-06-20T14:39:03.021Z,2.25
2019-06-20T14:41:36.365Z,1.90
2019-06-20T14:44:07.801Z,2.00
2019-06-20T14:46:39.525Z,1.92
2019-06-20T14:49:11.084Z,2.10
2019-06-20T14:51:43.561Z,2.10
2019-06-20T14:54:15.695Z,1.98
2019-06-20T14:56:47.945Z,2.50
2019-06-20T14:59:19.465Z,2.47
2019-06-20T15:01:52.562Z,3.00
2019-06-20T15:04:25.280Z,2.80
2019-06-20T15:06:56.811Z,3.17
2019-06-20T15:09:28.185Z,2.62
2019-06-20T15:11:59.593Z,2.70
2019-06-20T15:14:30.827Z,2.70
2019-06-20T15:17:02.222Z,2.60
2019-06-20T15:19:33.573Z,2.37
2019-06-20T15:22:04.984Z,2.20
2019-06-20T15:24:36.687Z,2.30
2019-06-20T15:27:08.169Z,2.25
2019-06-20T15:29:39.376Z,1.92
2019-06-20T15:32:10.721Z,2.00
2019-06-20T15:34:42.033Z,2.05
2019-06-20T15:37:13.797Z,2.20
2019-06-20T15:39:45.174Z,1.92
2019-06-20T15:42:16.603Z,1.90
2019-06-20T15:44:48.982Z,1.70
2019-06-20T15:47:21.484Z,1.77
2019-06-20T15:49:52.982Z,1.85
2019-06-20T15:52:24.388Z,1.85
2019-06-20T15:54:55.726Z,1.72
2019-06-20T15:57:28.011Z,1.80
2019-06-20T15:59:59.311Z,1.95
2019-06-20T16:02:30.812Z,1.75
2019-06-20T16:05:02.336Z,2.00
2019-06-20T16:07:33.773Z,1.70
2019-06-20T16:10:05.484Z,1.90
2019-06-20T16:12:36.938Z,1.77
2019-06-20T16:15:08.977Z,1.50
2019-06-20T16:17:40.479Z,1.60
2019-06-20T16:20:12.324Z,1.90
2019-06-20T16:22:43.836Z,1.77
2019-06-20T16:25:16.198Z,1.60
2019-06-20T16:27:47.491Z,1.50
2019-06-20T16:30:21.101Z,1.62
2019-06-20T16:32:52.457Z,1.62
2019-06-20T16:35:23.893Z,1.55
2019-06-20T16:37:55.371Z,1.60
2019-06-20T16:40:47.794Z,1.52
2019-06-20T16:43:19.795Z,1.75
2019-06-20T16:45:51.527Z,1.70
2019-06-20T16:48:22.827Z,1.50
2019-06-20T16:50:54.234Z,1.77
2019-06-20T16:53:25.781Z,1.85
2019-06-20T16:55:57.290Z,1.75
2019-06-20T16:58:28.659Z,1.90
2019-06-20T17:01:00.119Z,1.55
2019-06-20T17:03:41.167Z,1.77
2019-06-20T17:06:04.556Z,1.85
2019-06-20T17:08:35.940Z,1.70
2019-06-20T17:11:07.433Z,1.72
2019-06-20T17:13:38.810Z,1.47
2019-06-20T17:16:10.364Z,1.60
2019-06-20T17:18:41.918Z,1.47
2019-06-20T17:21:13.479Z,1.77
2019-06-20T17:23:45.926Z,1.70
2019-06-20T17:26:17.448Z,1.45
2019-06-20T17:28:48.831Z,1.70
2019-06-20T17:31:20.764Z,1.85
2019-06-20T17:33:57.559Z,1.80
2019-06-20T17:36:25.441Z,1.70
2019-06-20T17:38:56.954Z,1.72
2019-06-20T17:41:28.240Z,1.95
2019-06-20T17:43:59.464Z,1.90
2019-06-20T17:46:30.839Z,1.80
2019-06-20T17:49:02.189Z,1.90
2019-06-20T17:51:33.638Z,1.87
2019-06-20T17:54:05.013Z,1.65
2019-06-20T17:56:36.408Z,2.10
2019-06-20T17:59:07.860Z,2.08
2019-06-20T18:01:39.316Z,1.90
2019-06-20T18:04:14.095Z,1.70
2019-06-20T18:06:44.284Z,2.00
2019-06-20T18:09:15.749Z,2.15
2019-06-20T18:11:47.113Z,2.10
2019-06-20T18:14:18.511Z,2.10
2019-06-20T18:16:50.094Z,2.30
2019-06-20T18:19:21.402Z,2.45
2019-06-20T18:21:52.902Z,2.40
2019-06-20T18:24:24.225Z,2.33
2019-06-20T18:26:55.687Z,2.30
2019-06-20T18:29:27.980Z,2.10
2019-06-20T18:31:59.213Z,2.52
2019-06-20T18:34:30.842Z,2.47
2019-06-20T18:37:02.281Z,2.30
2019-06-20T18:39:33.675Z,2.02
2019-06-20T18:42:05.147Z,2.33
2019-06-20T18:44:36.642Z,2.20
2019-06-20T18:47:08.086Z,2.40
2019-06-20T18:49:39.562Z,2.47
2019-06-20T18:52:10.925Z,2.80
2019-06-20T18:54:42.234Z,2.55
2019-06-20T18:57:13.598Z,3.10
2019-06-20T18:59:45.232Z,3.20
2019-06-20T19:02:17.616Z,3.10
2019-06-20T19:04:50.902Z,2.90
2019-06-20T19:07:22.822Z,3.03
2019-06-20T19:09:54.534Z,3.30
2019-06-20T19:12:25.810Z,3.17
2019-06-20T19:14:57.145Z,3.70
2019-06-20T19:17:28.475Z,3.40
2019-06-20T19:20:00.498Z,3.60
2019-06-20T19:22:32.838Z,3.40
2019-06-20T19:25:04.753Z,3.40
2019-06-20T19:27:45.466Z,3.63
2019-06-20T19:30:09.855Z,3.50
2019-06-20T19:32:41.327Z,3.63
2019-06-20T19:35:13.562Z,4.00
2019-06-20T19:37:44.909Z,3.83
2019-06-20T19:40:16.478Z,3.93
2019-06-20T19:42:47.760Z,4.00
2019-06-20T19:45:19.505Z,4.20
2019-06-20T19:47:50.993Z,4.30
2019-06-20T19:50:23.037Z,3.93
2019-06-20T19:52:54.825Z,4.40
2019-06-20T19:55:26.350Z,4.33
2019-06-20T19:57:57.764Z,4.20
2019-06-20T20:00:29.140Z,4.47
2019-06-20T20:03:00.575Z,4.70
2019-06-20T20:05:32.202Z,4.30
2019-06-20T20:08:03.966Z,4.17
2019-06-20T20:10:47.197Z,4.50
2019-06-20T20:13:18.782Z,4.20
2019-06-20T20:15:50.228Z,4.40
2019-06-20T20:18:22.231Z,4.83
2019-06-20T20:20:53.674Z,4.43
2019-06-20T20:23:25.036Z,4.40
2019-06-20T20:25:56.340Z,4.50
2019-06-20T20:28:27.559Z,4.60
2019-06-20T20:30:58.885Z,4.83
2019-06-20T20:33:30.420Z,4.80
2019-06-20T20:36:02.122Z,4.63
2019-06-20T20:38:33.515Z,4.50
2019-06-20T20:41:04.803Z,4.83
2019-06-20T20:43:36.086Z,4.90
2019-06-20T20:46:07.533Z,5.00
2019-06-20T20:48:38.909Z,4.73
2019-06-20T20:51:10.477Z,4.57
2019-06-20T20:53:41.774Z,4.60
2019-06-20T20:56:13.485Z,4.40
2019-06-20T20:58:44.872Z,4.77
2019-06-20T21:01:29.576Z,5.07
2019-06-20T21:04:01.510Z,5.03
2019-06-20T21:06:32.974Z,5.20
2019-06-20T21:09:05.575Z,4.93
2019-06-20T21:11:38.156Z,4.90
2019-06-20T21:14:09.841Z,5.03
2019-06-20T21:16:41.180Z,5.13
2019-06-20T21:19:12.823Z,5.17
2019-06-20T21:21:44.147Z,5.47
2019-06-20T21:24:15.494Z,5.40
2019-06-20T21:26:49.824Z,6.10
2019-06-20T21:29:20.345Z,5.80
2019-06-20T21:31:52.067Z,5.80
2019-06-20T21:34:23.447Z,6.03
2019-06-20T21:36:54.780Z,6.57
2019-06-20T21:39:26.083Z,6.97
2019-06-20T21:41:57.600Z,7.23
2019-06-20T21:44:29.003Z,7.17
2019-06-20T21:47:00.483Z,6.70
2019-06-20T21:49:31.872Z,7.53
2019-06-20T21:52:03.433Z,7.80
2019-06-20T21:54:35.241Z,8.37
2019-06-20T21:57:07.045Z,7.70
2019-06-20T21:59:38.566Z,8.53
2019-06-20T22:02:10.275Z,10.40
2019-06-20T22:04:53.992Z,10.40
2019-06-20T22:07:15.278Z,9.77
2019-06-20T22:09:46.801Z,8.63
2019-06-20T22:12:18.297Z,8.67
2019-06-20T22:14:49.864Z,9.43
2019-06-20T22:17:21.182Z,9.20
2019-06-20T22:19:52.822Z,10.10
2019-06-20T22:22:24.173Z,10.20
2019-06-20T22:24:55.884Z,10.00
2019-06-20T22:27:27.590Z,10.90
2019-06-20T22:29:58.977Z,10.07
2019-06-20T22:32:30.371Z,10.07
2019-06-20T22:35:01.772Z,9.50
2019-06-20T22:37:33.276Z,10.03
2019-06-20T22:40:06.459Z,9.60
2019-06-20T22:42:37.945Z,10.10
2019-06-20T22:45:11.634Z,10.80
2019-06-20T22:47:43.069Z,10.03
2019-06-20T22:50:14.891Z,9.13
2019-06-20T22:52:46.134Z,9.93
2019-06-20T22:55:17.766Z,8.80
2019-06-20T22:57:49.094Z,8.73
2019-06-20T23:00:21.896Z,8.50
2019-06-20T23:02:53.218Z,8.50
2019-06-20T23:05:24.593Z,8.57
2019-06-20T23:07:56.079Z,9.10
2019-06-20T23:10:27.968Z,9.10
2019-06-20T23:13:00.157Z,8.80
2019-06-20T23:15:31.868Z,9.10
2019-06-20T23:18:03.216Z,8.40
2019-06-20T23:20:34.744Z,7.63
2019-06-20T23:23:07.091Z,8.20
2019-06-20T23:25:40.322Z,8.43
2019-06-20T23:28:11.805Z,7.50
2019-06-20T23:30:44.112Z,7.57
2019-06-20T23:33:15.504Z,8.60
2019-06-20T23:35:47.214Z,8.83
2019-06-20T23:38:18.555Z,7.77
2019-06-20T23:40:50.020Z,8.47
2019-06-20T23:43:21.750Z,8.57
2019-06-20T23:45:54.210Z,8.47
2019-06-20T23:48:25.486Z,8.20
2019-06-20T23:50:57.511Z,8.50
2019-06-20T23:53:28.975Z,8.50
2019-06-20T23:56:00.695Z,8.70
2019-06-20T23:58:32.114Z,8.00
